createdAt,value
2023-05-05T00:01:35.698Z,7.80
2023-05-05T00:04:03.814Z,8.00
2023-05-05T00:06:31.551Z,8.10
2023-05-05T00:08:59.195Z,7.50
2023-05-05T00:11:26.900Z,7.90
2023-05-05T00:13:54.528Z,8.70
2023-05-05T00:16:23.479Z,8.10
2023-05-05T00:18:51.427Z,8.80
2023-05-05T00:21:19.135Z,8.40
2023-05-05T00:23:46.738Z,8.10
2023-05-05T00:26:14.476Z,7.80
2023-05-05T00:28:42.182Z,7.40
2023-05-05T00:31:09.806Z,7.20
2023-05-05T00:33:37.433Z,6.00
2023-05-05T00:36:05.674Z,6.40
2023-05-05T00:38:33.408Z,6.40
2023-05-05T00:41:01.322Z,5.90
2023-05-05T00:43:28.955Z,6.70
2023-05-05T00:46:40.505Z,6.40
2023-05-05T00:49:08.790Z,5.70
2023-05-05T00:51:36.579Z,5.70
2023-05-05T00:54:05.781Z,5.90
2023-05-05T00:56:33.416Z,5.60
2023-05-05T00:59:03.857Z,6.00
2023-05-05T01:01:31.596Z,5.90
2023-05-05T01:03:59.372Z,6.00
2023-05-05T01:06:54.060Z,6.20
2023-05-05T01:10:01.032Z,6.60
2023-05-05T01:13:06.812Z,6.80
2023-05-05T01:15:44.161Z,6.10
2023-05-05T01:18:28.530Z,7.00
2023-05-05T01:21:12.608Z,8.40
2023-05-05T01:24:05.369Z,7.90
2023-05-05T01:27:06.808Z,7.50
2023-05-05T01:29:59.198Z,8.40
2023-05-05T01:32:31.718Z,7.40
2023-05-05T01:35:14.704Z,7.50
2023-05-05T01:38:06.570Z,7.30
2023-05-05T01:40:43.652Z,8.00
2023-05-05T01:43:15.232Z,6.20
2023-05-05T01:45:45.744Z,7.20
2023-05-05T01:48:18.364Z,7.70
2023-05-05T01:50:48.349Z,7.10
2023-05-05T01:53:19.027Z,6.00
2023-05-05T01:55:50.204Z,7.30
2023-05-05T01:58:22.678Z,7.00
2023-05-05T02:00:51.899Z,6.40
2023-05-05T02:03:23.729Z,6.60
2023-05-05T02:05:53.852Z,6.10
2023-05-05T02:08:24.153Z,6.80
2023-05-05T02:10:54.626Z,6.20
2023-05-05T02:13:26.199Z,6.00
2023-05-05T02:15:56.083Z,5.00
2023-05-05T02:18:27.098Z,4.50
2023-05-05T02:20:54.831Z,4.90
2023-05-05T02:23:23.263Z,4.90
2023-05-05T02:25:57.463Z,5.40
2023-05-05T02:28:51.290Z,5.60
2023-05-05T02:31:22.783Z,4.80
2023-05-05T02:33:55.966Z,4.40
2023-05-05T02:36:28.813Z,4.50
2023-05-05T02:39:02.295Z,5.00
2023-05-05T02:41:33.326Z,4.10
2023-05-05T02:44:05.175Z,4.70
2023-05-05T02:46:33.616Z,4.60
2023-05-05T02:49:01.348Z,4.40
2023-05-05T02:51:29.021Z,4.20
2023-05-05T02:53:56.936Z,5.40
2023-05-05T02:56:41.209Z,4.10
2023-05-05T02:59:31.050Z,4.20
2023-05-05T03:02:29.657Z,4.50
2023-05-05T03:05:12.961Z,4.30
2023-05-05T03:08:16.103Z,4.10
2023-05-05T03:11:06.554Z,4.50
2023-05-05T03:13:43.024Z,3.90
2023-05-05T03:16:13.220Z,4.10
2023-05-05T03:18:42.625Z,4.70
2023-05-05T03:21:11.442Z,4.70
2023-05-05T03:23:39.486Z,4.80
2023-05-05T03:26:07.188Z,4.60
2023-05-05T03:28:34.800Z,4.00
2023-05-05T03:31:03.848Z,4.20
2023-05-05T03:33:31.467Z,4.30
2023-05-05T03:35:59.146Z,5.10
2023-05-05T03:38:26.789Z,4.30
2023-05-05T03:40:56.149Z,4.70
2023-05-05T03:43:23.770Z,7.30
2023-05-05T03:45:51.428Z,6.90
2023-05-05T03:48:19.067Z,6.60
2023-05-05T03:50:46.855Z,7.60
2023-05-05T03:53:14.564Z,6.90
2023-05-05T03:55:42.228Z,7.80
2023-05-05T03:58:09.885Z,8.50
2023-05-05T04:00:37.534Z,6.30
2023-05-05T04:03:05.347Z,6.20
2023-05-05T04:05:33.113Z,5.50
2023-05-05T04:08:00.784Z,5.20
2023-05-05T04:10:28.397Z,5.40
2023-05-05T04:12:56.151Z,4.50
2023-05-05T04:15:23.903Z,5.00
2023-05-05T04:17:51.621Z,4.70
2023-05-05T04:20:19.511Z,4.80
2023-05-05T04:22:47.467Z,4.80
2023-05-05T04:25:15.121Z,4.50
2023-05-05T04:27:42.890Z,4.70
2023-05-05T04:30:11.190Z,7.50
2023-05-05T04:32:38.898Z,12.70
2023-05-05T04:35:07.851Z,15.70
2023-05-05T04:37:35.772Z,9.90
2023-05-05T04:40:04.269Z,7.60
2023-05-05T04:42:32.529Z,6.40
2023-05-05T04:45:00.242Z,6.10
2023-05-05T04:47:27.975Z,6.30
2023-05-05T04:49:56.085Z,6.30
2023-05-05T04:52:23.836Z,5.50
2023-05-05T04:54:51.531Z,5.40
2023-05-05T04:57:19.195Z,5.00
2023-05-05T04:59:46.842Z,5.80
2023-05-05T05:02:14.670Z,5.00
2023-05-05T05:04:42.540Z,5.10
2023-05-05T05:07:10.187Z,4.60
2023-05-05T05:09:37.835Z,5.30
2023-05-05T05:12:07.945Z,4.10
2023-05-05T05:14:39.947Z,5.00
2023-05-05T05:17:07.587Z,6.00
2023-05-05T05:19:35.339Z,4.80
2023-05-05T05:22:02.995Z,4.30
2023-05-05T05:24:30.818Z,5.20
2023-05-05T05:26:58.651Z,5.30
2023-05-05T05:29:27.144Z,4.80
2023-05-05T05:31:54.816Z,5.30
2023-05-05T05:34:22.552Z,5.60
2023-05-05T05:36:50.261Z,6.00
2023-05-05T05:39:18.002Z,5.40
2023-05-05T05:41:45.875Z,5.30
2023-05-05T05:44:13.661Z,5.20
2023-05-05T05:46:41.408Z,4.60
2023-05-05T05:49:09.124Z,4.80
2023-05-05T05:51:36.740Z,3.80
2023-05-05T05:54:04.676Z,3.70
2023-05-05T05:56:32.422Z,3.10
2023-05-05T05:59:02.487Z,3.40
2023-05-05T06:01:30.329Z,3.60
2023-05-05T06:03:58.289Z,3.20
2023-05-05T06:06:26.188Z,3.50
2023-05-05T06:08:54.041Z,3.90
2023-05-05T06:11:22.281Z,3.50
2023-05-05T06:13:49.878Z,3.50
2023-05-05T06:16:17.634Z,3.10
2023-05-05T06:18:45.397Z,3.60
2023-05-05T06:21:13.548Z,3.00
2023-05-05T06:23:42.230Z,2.90
2023-05-05T06:26:09.889Z,3.30
2023-05-05T06:28:37.668Z,2.80
2023-05-05T06:31:05.456Z,3.10
2023-05-05T06:33:33.350Z,2.80
2023-05-05T06:36:01.034Z,3.10
2023-05-05T06:38:28.639Z,3.60
2023-05-05T06:40:58.555Z,3.20
2023-05-05T06:43:26.288Z,4.10
2023-05-05T06:45:53.870Z,3.10
2023-05-05T06:48:22.212Z,3.00
2023-05-05T06:50:49.862Z,2.80
2023-05-05T06:53:17.972Z,2.60
2023-05-05T06:55:47.201Z,2.60
2023-05-05T06:58:15.013Z,2.60
2023-05-05T07:00:43.403Z,2.70
2023-05-05T07:03:11.938Z,2.80
2023-05-05T07:05:39.816Z,2.20
2023-05-05T07:08:09.086Z,2.30
2023-05-05T07:10:37.181Z,1.90
2023-05-05T07:13:07.590Z,2.10
2023-05-05T07:15:35.636Z,1.80
2023-05-05T07:18:03.565Z,1.40
2023-05-05T07:20:31.529Z,1.50
2023-05-05T07:22:59.196Z,1.60
2023-05-05T07:25:27.005Z,1.40
2023-05-05T07:27:54.738Z,1.50
2023-05-05T07:30:23.051Z,1.50
2023-05-05T07:32:51.485Z,1.40
2023-05-05T07:35:19.163Z,1.70
2023-05-05T07:37:47.474Z,2.00
2023-05-05T07:40:15.606Z,1.70
2023-05-05T07:42:43.407Z,1.80
2023-05-05T07:45:11.327Z,1.90
2023-05-05T07:47:39.245Z,2.30
2023-05-05T07:50:07.873Z,1.80
2023-05-05T07:52:46.651Z,1.90
2023-05-05T07:55:17.636Z,2.50
2023-05-05T07:57:45.455Z,2.30
2023-05-05T08:00:14.009Z,1.90
2023-05-05T08:02:41.885Z,1.80
2023-05-05T08:05:10.070Z,2.40
2023-05-05T08:07:41.203Z,1.80
2023-05-05T08:10:12.078Z,1.90
2023-05-05T08:12:40.595Z,1.60
2023-05-05T08:15:09.193Z,2.30
2023-05-05T08:17:52.677Z,2.00
2023-05-05T08:20:21.103Z,1.60
2023-05-05T08:22:49.736Z,1.50
2023-05-05T08:25:17.595Z,1.70
2023-05-05T08:27:45.718Z,3.90
2023-05-05T08:30:13.689Z,2.10
2023-05-05T08:32:41.591Z,1.80
2023-05-05T08:35:09.831Z,1.80
2023-05-05T08:37:37.927Z,1.70
2023-05-05T08:40:06.785Z,1.70
2023-05-05T08:42:37.825Z,2.30
2023-05-05T08:45:10.187Z,1.50
2023-05-05T08:47:39.672Z,1.30
2023-05-05T08:50:11.219Z,1.60
2023-05-05T08:52:44.527Z,2.00
2023-05-05T08:55:26.686Z,1.80
2023-05-05T08:58:01.240Z,1.70
2023-05-05T09:00:29.556Z,1.90
2023-05-05T09:02:59.849Z,2.10
2023-05-05T09:05:27.714Z,2.00
2023-05-05T09:07:55.658Z,1.80
2023-05-05T09:10:26.114Z,2.20
2023-05-05T09:12:53.896Z,1.40
2023-05-05T09:15:21.591Z,1.80
2023-05-05T09:17:49.958Z,1.90
2023-05-05T09:20:17.640Z,1.20
2023-05-05T09:22:47.600Z,2.00
2023-05-05T09:25:18.313Z,1.90
2023-05-05T09:27:49.383Z,1.90
2023-05-05T09:30:24.920Z,1.80
2023-05-05T09:32:55.489Z,2.50
2023-05-05T09:35:23.941Z,1.90
2023-05-05T09:37:51.649Z,1.60
2023-05-05T09:40:21.452Z,3.60
2023-05-05T09:43:00.684Z,2.20
2023-05-05T09:45:28.630Z,1.90
2023-05-05T09:47:59.885Z,1.60
2023-05-05T09:50:30.882Z,1.70
2023-05-05T09:53:03.720Z,1.90
2023-05-05T09:55:31.706Z,2.00
2023-05-05T09:58:19.506Z,1.80
2023-05-05T10:00:47.949Z,2.10
2023-05-05T10:03:16.736Z,1.80
2023-05-05T10:05:52.923Z,1.70
2023-05-05T10:08:24.075Z,1.50
2023-05-05T10:10:57.344Z,1.80
2023-05-05T10:13:25.473Z,1.70
2023-05-05T10:15:56.134Z,2.20
2023-05-05T10:18:26.998Z,1.30
2023-05-05T10:21:02.220Z,1.80
2023-05-05T10:23:54.148Z,1.80
2023-05-05T10:26:23.994Z,1.50
2023-05-05T10:28:56.446Z,1.80
2023-05-05T10:31:37.046Z,1.40
2023-05-05T10:34:10.502Z,2.10
2023-05-05T10:36:39.686Z,1.50
2023-05-05T10:39:09.478Z,1.90
2023-05-05T10:41:38.249Z,1.30
2023-05-05T10:44:07.061Z,1.20
2023-05-05T10:46:34.853Z,1.60
2023-05-05T10:49:21.680Z,1.40
2023-05-05T10:52:20.827Z,1.50
2023-05-05T10:55:02.210Z,1.50
2023-05-05T10:57:33.495Z,1.50
2023-05-05T11:00:01.445Z,1.30
2023-05-05T11:02:31.505Z,1.50
2023-05-05T11:05:22.845Z,1.40
2023-05-05T11:07:51.965Z,1.30
2023-05-05T11:10:21.221Z,1.30
2023-05-05T11:12:52.118Z,1.50
2023-05-05T11:15:26.202Z,1.70
2023-05-05T11:18:05.786Z,1.40
2023-05-05T11:20:40.970Z,1.40
2023-05-05T11:23:08.540Z,1.40
2023-05-05T11:25:40.890Z,1.80
2023-05-05T11:28:10.518Z,1.40
2023-05-05T11:31:18.383Z,1.70
2023-05-05T11:33:46.445Z,1.40
2023-05-05T11:36:17.918Z,2.20
2023-05-05T11:39:22.863Z,1.30
2023-05-05T11:42:19.179Z,1.60
2023-05-05T11:44:47.122Z,1.40
2023-05-05T11:47:15.012Z,1.20
2023-05-05T11:49:42.720Z,1.70
2023-05-05T11:52:14.124Z,1.70
2023-05-05T11:54:47.867Z,1.60
2023-05-05T11:57:21.051Z,1.30
2023-05-05T12:00:01.520Z,1.90
2023-05-05T12:02:30.353Z,1.70
2023-05-05T12:05:00.201Z,2.00
2023-05-05T12:07:31.716Z,2.30
2023-05-05T12:10:00.897Z,1.80
2023-05-05T12:12:40.308Z,1.40
2023-05-05T12:15:09.949Z,1.40
2023-05-05T12:17:45.121Z,1.70
2023-05-05T12:20:13.604Z,3.00
2023-05-05T12:22:41.946Z,1.50
2023-05-05T12:25:10.374Z,1.50
2023-05-05T12:27:38.770Z,2.20
2023-05-05T12:30:18.250Z,1.60
2023-05-05T12:32:46.235Z,1.80
2023-05-05T12:35:14.735Z,1.60
2023-05-05T12:37:43.629Z,1.40
2023-05-05T12:40:51.863Z,1.20
2023-05-05T12:43:31.383Z,1.50
2023-05-05T12:46:10.405Z,1.40
2023-05-05T12:48:45.006Z,2.60
2023-05-05T12:51:23.568Z,1.50
2023-05-05T12:54:11.711Z,1.60
2023-05-05T12:56:47.892Z,1.80
2023-05-05T12:59:21.464Z,1.60
2023-05-05T13:01:55.782Z,1.50
2023-05-05T13:04:27.993Z,1.90
2023-05-05T13:07:14.401Z,2.50
2023-05-05T13:09:42.387Z,1.70
2023-05-05T13:12:12.914Z,1.70
2023-05-05T13:14:41.948Z,1.30
2023-05-05T13:17:11.485Z,1.20
2023-05-05T13:19:46.435Z,1.60
2023-05-05T13:22:14.391Z,1.60
2023-05-05T13:24:51.601Z,1.90
2023-05-05T13:27:21.002Z,2.50
2023-05-05T13:29:48.973Z,2.50
2023-05-05T13:32:16.617Z,1.60
2023-05-05T13:34:44.346Z,1.80
2023-05-05T13:37:12.092Z,1.70
2023-05-05T13:39:39.839Z,1.70
2023-05-05T13:42:07.437Z,1.50
2023-05-05T13:44:35.748Z,1.40
2023-05-05T13:47:03.656Z,1.30
2023-05-05T13:49:31.369Z,1.50
2023-05-05T13:51:59.421Z,2.00
2023-05-05T13:54:28.122Z,1.50
2023-05-05T13:56:55.787Z,1.60
2023-05-05T13:59:23.511Z,1.60
2023-05-05T14:01:51.279Z,1.90
2023-05-05T14:04:19.073Z,1.50
2023-05-05T14:06:46.853Z,2.00
2023-05-05T14:09:14.685Z,1.60
2023-05-05T14:11:42.348Z,1.70
2023-05-05T14:14:10.009Z,1.80
2023-05-05T14:16:37.744Z,1.10
2023-05-05T14:19:05.480Z,1.50
2023-05-05T14:21:33.266Z,1.90
2023-05-05T14:24:01.067Z,1.80
2023-05-05T14:26:29.163Z,1.20
2023-05-05T14:28:56.806Z,1.60
2023-05-05T14:31:24.487Z,1.70
2023-05-05T14:33:53.321Z,1.50
2023-05-05T14:36:21.178Z,1.60
2023-05-05T14:38:48.981Z,1.80
2023-05-05T14:41:16.722Z,1.70
2023-05-05T14:43:44.371Z,1.40
2023-05-05T14:46:12.425Z,1.80
2023-05-05T14:48:40.206Z,1.50
2023-05-05T14:51:07.878Z,1.40
2023-05-05T14:53:35.852Z,1.40
2023-05-05T14:56:03.577Z,1.70
2023-05-05T14:58:31.228Z,1.40
2023-05-05T15:01:00.482Z,1.60
2023-05-05T15:03:28.501Z,2.50
2023-05-05T15:05:56.624Z,1.50
2023-05-05T15:08:25.161Z,1.70
2023-05-05T15:10:52.870Z,1.50
2023-05-05T15:13:20.616Z,1.90
2023-05-05T15:15:49.013Z,1.60
2023-05-05T15:18:16.855Z,1.90
2023-05-05T15:20:44.592Z,1.40
2023-05-05T15:23:12.253Z,1.80
2023-05-05T15:25:40.045Z,1.40
2023-05-05T15:28:07.767Z,1.90
2023-05-05T15:30:35.475Z,1.60
2023-05-05T15:33:03.357Z,1.90
2023-05-05T15:35:31.313Z,1.60
2023-05-05T15:37:59.082Z,1.40
2023-05-05T15:40:26.768Z,1.50
2023-05-05T15:42:54.597Z,1.60
2023-05-05T15:45:22.264Z,1.90
2023-05-05T15:47:50.669Z,2.00
2023-05-05T15:50:18.593Z,1.60
2023-05-05T15:52:48.068Z,1.90
2023-05-05T15:55:17.496Z,1.60
2023-05-05T15:57:45.214Z,1.40
2023-05-05T16:00:14.195Z,1.60
2023-05-05T16:02:42.026Z,1.80
2023-05-05T16:05:10.404Z,1.80
2023-05-05T16:07:39.804Z,1.60
2023-05-05T16:10:08.883Z,1.70
2023-05-05T16:12:36.798Z,1.90
2023-05-05T16:15:05.245Z,1.70
2023-05-05T16:17:33.496Z,2.00
2023-05-05T16:20:01.240Z,1.80
2023-05-05T16:22:28.929Z,1.60
2023-05-05T16:24:56.569Z,1.70
2023-05-05T16:27:24.705Z,1.60
2023-05-05T16:29:53.274Z,1.90
2023-05-05T16:32:21.231Z,1.70
2023-05-05T16:34:49.388Z,1.60
2023-05-05T16:37:17.123Z,2.10
2023-05-05T16:39:44.733Z,2.50
2023-05-05T16:44:41.334Z,2.00
2023-05-05T16:47:08.936Z,2.00
2023-05-05T16:49:36.607Z,1.70
2023-05-05T16:52:04.768Z,1.60
2023-05-05T16:54:33.130Z,2.10
2023-05-05T16:57:02.430Z,2.20
2023-05-05T16:59:31.649Z,2.00
2023-05-05T17:01:59.563Z,2.20
2023-05-05T17:04:27.473Z,2.60
2023-05-05T17:06:55.403Z,1.90
2023-05-05T17:09:24.938Z,2.40
2023-05-05T17:11:52.773Z,2.10
2023-05-05T17:14:20.782Z,2.30
2023-05-05T17:16:48.439Z,1.90
2023-05-05T17:19:16.154Z,2.30
2023-05-05T17:21:43.858Z,1.90
2023-05-05T17:24:11.494Z,2.40
2023-05-05T17:26:39.837Z,2.00
2023-05-05T17:29:07.490Z,2.40
2023-05-05T17:31:35.193Z,2.50
2023-05-05T17:34:03.095Z,2.60
2023-05-05T17:36:31.252Z,2.90
2023-05-05T17:38:59.392Z,3.10
2023-05-05T17:41:27.029Z,2.90
2023-05-05T17:43:54.792Z,3.00
2023-05-05T17:46:22.512Z,3.20
2023-05-05T17:48:51.131Z,3.00
2023-05-05T17:51:18.872Z,2.70
2023-05-05T17:53:46.537Z,2.90
2023-05-05T17:56:14.306Z,2.40
2023-05-05T17:58:42.187Z,2.30
2023-05-05T18:01:13.679Z,2.60
2023-05-05T18:03:42.050Z,2.60
2023-05-05T18:06:10.113Z,3.70
2023-05-05T18:08:38.232Z,2.60
2023-05-05T18:11:05.942Z,2.10
2023-05-05T18:13:33.650Z,2.50
2023-05-05T18:16:01.507Z,1.80
2023-05-05T18:18:29.446Z,2.40
2023-05-05T18:20:57.140Z,2.50
2023-05-05T18:23:24.742Z,2.20
2023-05-05T18:25:52.464Z,2.10
2023-05-05T18:28:20.498Z,2.40
2023-05-05T18:30:48.648Z,2.10
2023-05-05T18:33:16.238Z,2.10
2023-05-05T18:35:43.958Z,2.00
2023-05-05T18:38:12.243Z,2.50
2023-05-05T18:40:39.976Z,2.20
2023-05-05T18:43:07.742Z,2.90
2023-05-05T18:45:35.651Z,2.90
2023-05-05T18:48:03.477Z,3.10
2023-05-05T18:50:33.266Z,4.00
2023-05-05T18:53:01.063Z,3.10
2023-05-05T18:55:28.709Z,4.10
2023-05-05T18:57:56.425Z,3.10
2023-05-05T19:00:24.571Z,3.20
2023-05-05T19:02:52.641Z,3.80
2023-05-05T19:05:20.490Z,3.00
2023-05-05T19:07:48.137Z,4.40
2023-05-05T19:10:15.887Z,3.40
2023-05-05T19:12:43.681Z,3.20
2023-05-05T19:15:13.198Z,3.80
2023-05-05T19:17:41.164Z,4.20
2023-05-05T19:20:09.655Z,4.20
2023-05-05T19:22:37.479Z,5.20
2023-05-05T19:25:05.894Z,6.80
2023-05-05T19:27:33.998Z,5.50
2023-05-05T19:30:01.674Z,5.00
2023-05-05T19:32:29.332Z,4.90
2023-05-05T19:34:57.776Z,4.50
2023-05-05T19:37:25.928Z,5.30
2023-05-05T19:39:53.797Z,6.20
2023-05-05T19:42:21.494Z,6.80
2023-05-05T19:44:49.084Z,6.70
2023-05-05T19:47:17.943Z,6.80
2023-05-05T19:49:45.628Z,5.40
2023-05-05T19:52:13.338Z,5.70
2023-05-05T19:54:41.315Z,5.30
2023-05-05T19:57:09.380Z,4.70
2023-05-05T19:59:37.002Z,4.80
2023-05-05T20:02:04.728Z,5.20
2023-05-05T20:04:32.324Z,5.80
2023-05-05T20:06:59.975Z,8.90
2023-05-05T20:09:27.983Z,7.30
2023-05-05T20:11:58.849Z,8.00
2023-05-05T20:14:26.884Z,5.60
2023-05-05T20:16:54.609Z,5.30
2023-05-05T20:19:22.329Z,4.40
2023-05-05T20:21:49.992Z,4.60
2023-05-05T20:24:17.879Z,4.90
2023-05-05T20:26:45.682Z,4.40
2023-05-05T20:29:15.219Z,4.10
2023-05-05T20:31:42.941Z,4.60
2023-05-05T20:34:10.849Z,5.20
2023-05-05T20:36:38.814Z,5.10
2023-05-05T20:39:07.399Z,4.60
2023-05-05T20:41:36.203Z,4.40
2023-05-05T20:44:03.902Z,5.20
2023-05-05T20:46:32.973Z,4.40
2023-05-05T20:49:00.676Z,4.90
2023-05-05T20:51:31.708Z,5.20
2023-05-05T20:54:00.042Z,4.90
2023-05-05T20:56:27.750Z,4.10
2023-05-05T20:58:56.803Z,4.70
2023-05-05T21:01:24.468Z,5.30
2023-05-05T21:03:52.813Z,5.40
2023-05-05T21:06:20.610Z,6.00
2023-05-05T21:08:48.392Z,5.70
2023-05-05T21:11:16.030Z,4.90
2023-05-05T21:13:43.730Z,5.90
2023-05-05T21:16:11.848Z,4.80
2023-05-05T21:18:39.566Z,5.10
2023-05-05T21:21:07.284Z,5.70
2023-05-05T21:23:34.934Z,5.80
2023-05-05T21:26:03.116Z,5.50
2023-05-05T21:28:30.937Z,5.20
2023-05-05T21:31:20.660Z,6.10
2023-05-05T21:33:46.421Z,5.80
2023-05-05T21:36:19.216Z,5.90
2023-05-05T21:38:47.130Z,5.10
2023-05-05T21:41:14.901Z,5.30
2023-05-05T21:43:42.513Z,4.80
2023-05-05T21:46:10.413Z,4.40
2023-05-05T21:48:39.990Z,4.40
2023-05-05T21:51:07.802Z,4.20
2023-05-05T21:53:35.586Z,4.40
2023-05-05T21:56:07.491Z,4.30
2023-05-05T21:58:35.518Z,4.50
2023-05-05T22:01:04.463Z,4.40
2023-05-05T22:03:35.028Z,4.30
2023-05-05T22:06:02.918Z,4.30
2023-05-05T22:08:30.598Z,3.80
2023-05-05T22:10:58.274Z,4.00
2023-05-05T22:13:25.976Z,4.40
2023-05-05T22:15:53.638Z,4.70
2023-05-05T22:18:21.309Z,3.80
2023-05-05T22:20:49.043Z,4.70
2023-05-05T22:23:17.399Z,4.40
2023-05-05T22:25:45.015Z,4.10
2023-05-05T22:28:12.629Z,5.00
2023-05-05T22:30:41.005Z,4.70
2023-05-05T22:33:09.076Z,3.80
2023-05-05T22:35:38.054Z,3.20
2023-05-05T22:38:06.584Z,4.00
2023-05-05T22:40:35.854Z,3.30
2023-05-05T22:43:03.669Z,3.60
2023-05-05T22:45:31.387Z,3.40
2023-05-05T22:47:59.232Z,4.10
2023-05-05T22:50:27.034Z,3.60
2023-05-05T22:52:54.751Z,3.90
2023-05-05T22:55:24.353Z,4.00
2023-05-05T22:57:54.922Z,3.90
2023-05-05T23:00:24.217Z,4.10
2023-05-05T23:02:51.965Z,4.90
2023-05-05T23:05:19.652Z,3.80
2023-05-05T23:07:47.352Z,3.80
2023-05-05T23:10:15.194Z,3.80
2023-05-05T23:12:42.996Z,4.50
2023-05-05T23:15:11.656Z,3.50
2023-05-05T23:17:39.638Z,4.60
2023-05-05T23:20:11.766Z,3.80
2023-05-05T23:22:39.477Z,3.80
2023-05-05T23:25:08.860Z,4.30
2023-05-05T23:27:39.959Z,4.40
2023-05-05T23:30:09.412Z,4.60
2023-05-05T23:32:37.207Z,4.20
2023-05-05T23:35:05.529Z,4.00
2023-05-05T23:37:33.224Z,4.00
2023-05-05T23:40:00.869Z,4.00
2023-05-05T23:42:28.484Z,4.60
2023-05-05T23:44:56.149Z,4.40
2023-05-05T23:47:23.927Z,3.60
2023-05-05T23:49:51.524Z,4.30
2023-05-05T23:52:19.141Z,5.00
2023-05-05T23:54:46.747Z,5.10
2023-05-05T23:57:14.473Z,4.60
2023-05-05T23:59:42.564Z,4.70
